createdAt,value
2019-05-28T13:47:46.211Z,98826.64
2019-05-28T13:50:17.269Z,98832.69
2019-05-28T13:52:48.069Z,98823.48
2019-05-28T13:55:19.466Z,98821.38
2019-05-28T13:57:50.015Z,98820.34
2019-05-28T14:00:22.332Z,98817.16
2019-05-28T14:02:52.798Z,98808.30
2019-05-28T14:05:23.391Z,98804.20
2019-05-28T14:07:54.103Z,98808.84
2019-05-28T14:10:24.846Z,98808.45
2019-05-28T14:12:55.530Z,98810.48
2019-05-28T14:15:26.217Z,98803.37
2019-05-28T14:17:56.734Z,98804.77
2019-05-28T14:20:27.415Z,98799.39
2019-05-28T14:22:57.916Z,98795.41
2019-05-28T14:25:28.423Z,98795.37
2019-05-28T14:27:58.943Z,98787.97
2019-05-28T14:30:29.667Z,98784.81
2019-05-28T14:33:00.148Z,98779.61
2019-05-28T14:35:30.703Z,98783.59
2019-05-28T14:38:01.201Z,98774.38
2019-05-28T14:40:32.624Z,98778.02
2019-05-28T14:43:03.469Z,98776.36
2019-05-28T14:45:34.156Z,98773.39
2019-05-28T14:48:04.833Z,98767.78
2019-05-28T14:50:35.349Z,98755.33
2019-05-28T14:53:05.962Z,98759.31
2019-05-28T14:55:36.570Z,98755.32
2019-05-28T14:58:07.191Z,98751.34
2019-05-28T15:00:37.793Z,98746.52
2019-05-28T15:03:08.313Z,98739.69
2019-05-28T15:05:38.771Z,98747.52
2019-05-28T15:08:09.243Z,98745.30
2019-05-28T15:10:39.744Z,98741.71
2019-05-28T15:13:10.319Z,98736.59
2019-05-28T15:15:40.750Z,98740.18
2019-05-28T15:18:11.210Z,98737.59
2019-05-28T15:20:41.711Z,98738.44
2019-05-28T15:23:12.205Z,98736.68
2019-05-28T15:25:42.661Z,98731.66
2019-05-28T15:28:13.209Z,98726.08
2019-05-28T15:30:43.710Z,98734.09
2019-05-28T15:33:14.260Z,98730.73
2019-05-28T15:35:44.793Z,98725.91
2019-05-28T15:38:15.348Z,98722.73
2019-05-28T15:40:45.878Z,98729.95
2019-05-28T15:43:16.343Z,98730.14
2019-05-28T15:45:46.894Z,98721.52
2019-05-28T15:48:17.357Z,98723.52
2019-05-28T15:50:47.974Z,98723.72
2019-05-28T15:53:18.406Z,98727.13
2019-05-28T15:55:48.923Z,98723.95
2019-05-28T15:58:19.392Z,98720.92
2019-05-28T16:00:49.904Z,98728.95
2019-05-28T16:03:20.425Z,98727.91
2019-05-28T16:05:50.985Z,98720.73
2019-05-28T16:08:21.485Z,98724.52
2019-05-28T16:10:51.980Z,98722.73
2019-05-28T16:13:22.503Z,98723.53
2019-05-28T16:15:53.004Z,98721.73
2019-05-28T16:18:23.453Z,98725.11
2019-05-28T16:20:53.972Z,98727.13
2019-05-28T16:23:24.435Z,98721.52
2019-05-28T16:25:54.974Z,98728.66
2019-05-28T16:28:25.448Z,98735.83
2019-05-28T16:31:11.144Z,98730.22
2019-05-28T16:33:28.227Z,98730.23
2019-05-28T16:35:58.726Z,98733.03
2019-05-28T16:38:29.204Z,98727.02
2019-05-28T16:40:59.716Z,98728.75
2019-05-28T16:43:30.284Z,98723.16
2019-05-28T16:46:00.772Z,98719.14
2019-05-28T16:48:31.232Z,98724.50
2019-05-28T16:51:01.742Z,98725.25
2019-05-28T16:53:32.194Z,98731.61
2019-05-28T16:56:02.708Z,98732.81
2019-05-28T16:58:33.145Z,98732.64
2019-05-28T17:01:21.327Z,98735.42
2019-05-28T17:03:35.886Z,98730.19
2019-05-28T17:06:06.348Z,98735.04
2019-05-28T17:08:36.852Z,98732.03
2019-05-28T17:11:07.489Z,98734.34
2019-05-28T17:13:38.007Z,98738.91
2019-05-28T17:16:08.497Z,98733.70
2019-05-28T17:18:39.004Z,98736.05
2019-05-28T17:21:09.594Z,98733.91
2019-05-28T17:23:40.112Z,98741.63
2019-05-28T17:26:10.668Z,98752.56
2019-05-28T17:28:41.164Z,98757.68
2019-05-28T17:31:11.694Z,98757.68
2019-05-28T17:33:42.211Z,98763.23
2019-05-28T17:36:12.677Z,98763.23
2019-05-28T17:38:43.700Z,98763.50
2019-05-28T17:41:14.161Z,98763.50
2019-05-28T17:43:44.664Z,98766.36
2019-05-28T17:46:15.168Z,98771.21
2019-05-28T17:48:45.836Z,98772.70
2019-05-28T17:51:16.290Z,98772.17
2019-05-28T17:53:46.832Z,98770.66
2019-05-28T17:56:17.294Z,98780.92
2019-05-28T17:58:47.848Z,98778.20
2019-05-28T18:01:18.301Z,98779.45
2019-05-28T18:03:48.771Z,98772.77
2019-05-28T18:06:19.244Z,98781.94
2019-05-28T18:08:49.749Z,98777.44
2019-05-28T18:11:20.223Z,98779.90
2019-05-28T18:13:50.733Z,98780.16
2019-05-28T18:16:21.210Z,98783.11
2019-05-28T18:18:51.712Z,98782.11
2019-05-28T18:21:22.168Z,98794.06
2019-05-28T18:23:52.676Z,98792.33
2019-05-28T18:26:23.121Z,98799.36
2019-05-28T18:28:53.628Z,98805.97
2019-05-28T18:31:24.135Z,98702.42
2019-05-28T18:33:54.641Z,98817.13
2019-05-28T18:36:25.164Z,98826.73
2019-05-28T18:38:55.625Z,98821.96
2019-05-28T18:41:26.124Z,98828.52
2019-05-28T18:43:56.638Z,98836.27
2019-05-28T18:46:27.133Z,98837.28
2019-05-28T18:48:57.596Z,98840.27
2019-05-28T18:51:28.119Z,98837.77
2019-05-28T18:53:58.678Z,98840.16
2019-05-28T18:56:29.292Z,98847.55
2019-05-28T18:58:59.801Z,98838.03
2019-05-28T19:01:30.307Z,98841.39
2019-05-28T19:04:00.843Z,98843.52
2019-05-28T19:06:31.303Z,98841.29
2019-05-28T19:09:01.824Z,98845.78
2019-05-28T19:11:37.971Z,98848.32
2019-05-28T19:14:04.544Z,98850.44
2019-05-28T19:16:35.184Z,98856.93
2019-05-28T19:19:05.704Z,98852.32
2019-05-28T19:21:36.329Z,98861.28
2019-05-28T19:24:06.882Z,98864.89
2019-05-28T19:26:37.436Z,98871.38
2019-05-28T19:29:07.946Z,98756.91
2019-05-28T19:31:38.660Z,98878.28
2019-05-28T19:34:09.418Z,98888.44
2019-05-28T19:36:40.167Z,98893.67
2019-05-28T19:39:10.663Z,98895.99
2019-05-28T19:41:53.609Z,98885.17
2019-05-28T19:44:13.378Z,98895.83
2019-05-28T19:46:43.951Z,98898.66
2019-05-28T19:49:14.406Z,98903.06
2019-05-28T19:51:44.915Z,98906.62
2019-05-28T19:54:15.441Z,98906.25
2019-05-28T19:56:45.893Z,98907.78
2019-05-28T19:59:16.404Z,98913.57
2019-05-28T20:01:46.856Z,98914.26
2019-05-28T20:04:17.390Z,98921.21
2019-05-28T20:06:47.838Z,98924.99
2019-05-28T20:09:18.335Z,98914.75
2019-05-28T20:11:48.847Z,98919.82
2019-05-28T20:14:19.311Z,98924.38
2019-05-28T20:16:49.852Z,98939.11
2019-05-28T20:19:20.320Z,98943.85
2019-05-28T20:21:53.454Z,98947.60
2019-05-28T20:24:23.094Z,98949.87
2019-05-28T20:26:53.945Z,98946.84
2019-05-28T20:29:24.462Z,98944.80
2019-05-28T20:31:55.004Z,98943.66
2019-05-28T20:34:25.578Z,98950.02
2019-05-28T20:36:56.043Z,98939.95
2019-05-28T20:39:26.505Z,98946.42
2019-05-28T20:41:57.004Z,98948.49
2019-05-28T20:44:27.452Z,98961.84
2019-05-28T20:46:58.004Z,98958.30
2019-05-28T20:49:28.508Z,98965.13
2019-05-28T20:51:59.008Z,98962.95
2019-05-28T20:54:29.524Z,98971.20
2019-05-28T20:56:59.992Z,98972.83
2019-05-28T20:59:30.464Z,98961.16
2019-05-28T21:02:00.982Z,98968.77
2019-05-28T21:04:31.512Z,98973.36
2019-05-28T21:07:01.962Z,98979.05
2019-05-28T21:09:32.442Z,98973.91
2019-05-28T21:12:02.932Z,98975.41
2019-05-28T21:14:33.370Z,98979.66
2019-05-28T21:17:03.971Z,98978.38
2019-05-28T21:19:34.421Z,98984.38
2019-05-28T21:22:04.919Z,98984.05
2019-05-28T21:24:35.394Z,98986.45
2019-05-28T21:27:05.935Z,98984.86
2019-05-28T21:29:36.484Z,98983.91
2019-05-28T21:32:06.926Z,98985.13
2019-05-28T21:34:37.377Z,98993.25
2019-05-28T21:37:07.884Z,98994.16
2019-05-28T21:39:38.323Z,98990.32
2019-05-28T21:42:08.838Z,98992.97
2019-05-28T21:44:39.303Z,99004.97
2019-05-28T21:47:09.881Z,99006.12
2019-05-28T21:49:40.344Z,99008.36
2019-05-28T21:52:10.953Z,99005.13
2019-05-28T21:54:41.423Z,99014.55
2019-05-28T21:57:11.877Z,99021.77
2019-05-28T21:59:42.327Z,99024.14
2019-05-28T22:02:13.717Z,99033.30
2019-05-28T22:04:44.222Z,99035.02
2019-05-28T22:07:14.680Z,99031.19
2019-05-28T22:09:45.210Z,99024.48
2019-05-28T22:12:15.646Z,99024.48
2019-05-28T22:14:46.106Z,99023.83
2019-05-28T22:17:16.588Z,99020.50
2019-05-28T22:19:47.039Z,99033.08
2019-05-28T22:22:17.571Z,99033.80
2019-05-28T22:24:48.092Z,99032.52
2019-05-28T22:27:18.553Z,99030.88
2019-05-28T22:29:49.056Z,99032.03
2019-05-28T22:32:19.571Z,99031.37
2019-05-28T22:34:50.036Z,99039.80
2019-05-28T22:37:20.533Z,99039.23
2019-05-28T22:39:51.002Z,99038.66
2019-05-28T22:42:21.491Z,99036.97
2019-05-28T22:44:51.940Z,99033.00
2019-05-28T22:47:22.516Z,99031.36
2019-05-28T22:49:52.962Z,99032.44
2019-05-28T22:52:23.454Z,99027.49
2019-05-28T22:54:53.912Z,99031.05
2019-05-28T22:57:24.464Z,99039.72
2019-05-28T22:59:54.921Z,99043.53
2019-05-28T23:02:25.416Z,99060.96
2019-05-28T23:04:55.865Z,99054.56
2019-05-28T23:07:26.352Z,99057.46
2019-05-28T23:09:56.798Z,99055.77
2019-05-28T23:12:27.322Z,99060.79
2019-05-28T23:14:57.781Z,99064.60
2019-05-28T23:17:28.290Z,99063.54
2019-05-28T23:19:58.754Z,99064.07
2019-05-28T23:22:29.199Z,99071.31
2019-05-28T23:24:59.661Z,99067.90
2019-05-28T23:27:30.157Z,99067.09
2019-05-28T23:30:06.752Z,99068.47
2019-05-28T23:32:32.819Z,99073.09
2019-05-28T23:35:04.302Z,99066.87
2019-05-28T23:37:34.892Z,99071.94
2019-05-28T23:40:07.044Z,99062.96
2019-05-28T23:42:37.687Z,99067.08
2019-05-28T23:45:09.764Z,99069.27
2019-05-28T23:47:40.446Z,99067.83
2019-05-28T23:50:14.790Z,99075.00
2019-05-28T23:52:43.407Z,99076.49
2019-05-28T23:55:14.157Z,99078.86
2019-05-28T23:57:44.739Z,99081.77
